Mississippi River (Missouri), New Madrid (07024175)

StateMissouriLatestUnknown (427000 cfs)
RiverMississippi RiverRatingObservedEstimated
Updated2020-07-13 20:00 (22 minutes ago)Flood - The river is flooding. Obstacles can be treacherous or deadly. The river should be avoided at this stage for casual trips and definitely for the inexperienced. Trips should be attempted only with protective gear and equipment.Flood(none)(none)
Discharge427000 cfs (median: 572000 cfs)High - The river is high and potentially dangerous, especially for the young and / or inexperienced. Normal stream obstacles are sometimes difficult to navigate. Extended distances can be attempted, but canoe travel may not be advisable.High(none)(none)
Height14.78 feetGood - Conditions are ideal for a canoe or kayak. Boats typically will drag on fewer than one-quarter of riffles, if at all, and portages are unnecessary or rare. Normal float lengths can be attempted without a problem.Good(none)(none)
TrendRising (rising over 24 hours)Low - River is low but can still be floated. Some riffles are okay but most come with significant dragging and might need a portage. Float lengths should be reduced to accommodate low flow, dragging, and portages.Low(none)(none)
USGSExternal icon USGS Site (External icon Google Maps)Poor - River is too low to float comfortably. Most or all riffles will drag or must be portaged and some obstacles (such as slick shelf rock) cause undue problems. Avoid the river at this stage for casual paddling trips.Poor(none)(none)

Trending Data

Plot Image

Trips for Mississippi River (Missouri), New Madrid (07024175)

DateStartEndDistanceConditionDischargeHeightFishingDetails

A total of 0 rows are displayed.

Condition Descriptions

Fishing Conditions

Fish Species

Notes

Classic Trip List

The classic River Trips application is still available for use. It is updated with the new system using a data retrofit. It is no longer maintained. The original River Trips application is no longer updated (as of 1 Dec 2016) but can be checked for errors or for the condition of the data before it was converted to the new system.

Gauge Data Table

ObservationHeightDischargeMaximum
Discharge
Minimum
Discharge
Mean
Discharge
P05P10P20P25P50
(Median)
P75P80P90P95
2020-07-13 20:00 14.78 427000 908000 (2019) 517000 (2018) 642000 517000 525000 572000 830000 908000
2020-07-13 19:00 14.71 426000 908000 (2019) 517000 (2018) 642000 517000 525000 572000 830000 908000
2020-07-13 18:00 14.65 424000 908000 (2019) 517000 (2018) 642000 517000 525000 572000 830000 908000
2020-07-13 17:00 14.50 421000 908000 (2019) 517000 (2018) 642000 517000 525000 572000 830000 908000
2020-07-13 16:00 14.31 416000 908000 (2019) 517000 (2018) 642000 517000 525000 572000 830000 908000
2020-07-13 15:00 14.48 420000 908000 (2019) 517000 (2018) 642000 517000 525000 572000 830000 908000
2020-07-13 14:00 14.07 411000 908000 (2019) 517000 (2018) 642000 517000 525000 572000 830000 908000
2020-07-13 13:00 14.36 418000 908000 (2019) 517000 (2018) 642000 517000 525000 572000 830000 908000
2020-07-13 12:00 14.31 416000 908000 (2019) 517000 (2018) 642000 517000 525000 572000 830000 908000
2020-07-13 11:00 14.25 415000 908000 (2019) 517000 (2018) 642000 517000 525000 572000 830000 908000
2020-07-13 10:00 14.19 414000 908000 (2019) 517000 (2018) 642000 517000 525000 572000 830000 908000
2020-07-13 09:00 14.16 413000 908000 (2019) 517000 (2018) 642000 517000 525000 572000 830000 908000
2020-07-13 08:00 14.09 411000 908000 (2019) 517000 (2018) 642000 517000 525000 572000 830000 908000
2020-07-13 07:00 14.04 410000 908000 (2019) 517000 (2018) 642000 517000 525000 572000 830000 908000
2020-07-13 06:00 13.98 409000 908000 (2019) 517000 (2018) 642000 517000 525000 572000 830000 908000
2020-07-13 05:00 13.93 408000 908000 (2019) 517000 (2018) 642000 517000 525000 572000 830000 908000
2020-07-13 04:00 13.89 407000 908000 (2019) 517000 (2018) 642000 517000 525000 572000 830000 908000
2020-07-13 03:00 13.84 406000 908000 (2019) 517000 (2018) 642000 517000 525000 572000 830000 908000
2020-07-13 02:00 13.82 405000 908000 (2019) 517000 (2018) 642000 517000 525000 572000 830000 908000
2020-07-13 01:00 13.81 405000 908000 (2019) 517000 (2018) 642000 517000 525000 572000 830000 908000
2020-07-13 00:00 13.81 405000 908000 (2019) 517000 (2018) 642000 517000 525000 572000 830000 908000
2020-07-12 23:00 13.79 405000 931000 (2019) 550000 (2018) 678000 550000 560000 616000 859000 931000
2020-07-12 22:00 13.83 406000 931000 (2019) 550000 (2018) 678000 550000 560000 616000 859000 931000
2020-07-12 21:00 13.83 406000 931000 (2019) 550000 (2018) 678000 550000 560000 616000 859000 931000
2020-07-12 20:00 13.85 406000 931000 (2019) 550000 (2018) 678000 550000 560000 616000 859000 931000
2020-07-12 19:00 13.84 406000 931000 (2019) 550000 (2018) 678000 550000 560000 616000 859000 931000
2020-07-12 18:00 13.90 407000 931000 (2019) 550000 (2018) 678000 550000 560000 616000 859000 931000
2020-07-12 17:00 13.91 407000 931000 (2019) 550000 (2018) 678000 550000 560000 616000 859000 931000
2020-07-12 16:00 13.96 408000 931000 (2019) 550000 (2018) 678000 550000 560000 616000 859000 931000
2020-07-12 15:00 13.99 409000 931000 (2019) 550000 (2018) 678000 550000 560000 616000 859000 931000
2020-07-12 14:00 14.03 410000 931000 (2019) 550000 (2018) 678000 550000 560000 616000 859000 931000
2020-07-12 13:00 13.63 401000 931000 (2019) 550000 (2018) 678000 550000 560000 616000 859000 931000
2020-07-12 12:00 14.02 410000 931000 (2019) 550000 (2018) 678000 550000 560000 616000 859000 931000
2020-07-12 11:00 14.12 412000 931000 (2019) 550000 (2018) 678000 550000 560000 616000 859000 931000
2020-07-12 09:00 13.89 407000 931000 (2019) 550000 (2018) 678000 550000 560000 616000 859000 931000
2020-07-12 08:00 13.89 407000 931000 (2019) 550000 (2018) 678000 550000 560000 616000 859000 931000
2020-07-12 07:00 13.80 405000 931000 (2019) 550000 (2018) 678000 550000 560000 616000 859000 931000
2020-07-12 06:00 13.96 408000 931000 (2019) 550000 (2018) 678000 550000 560000 616000 859000 931000
2020-07-12 05:00 13.74 404000 931000 (2019) 550000 (2018) 678000 550000 560000 616000 859000 931000
2020-07-12 04:00 13.58 400000 931000 (2019) 550000 (2018) 678000 550000 560000 616000 859000 931000
2020-07-12 03:00 13.85 406000 931000 (2019) 550000 (2018) 678000 550000 560000 616000 859000 931000
2020-07-12 02:00 13.84 406000 931000 (2019) 550000 (2018) 678000 550000 560000 616000 859000 931000
2020-07-12 01:00 13.84 406000 931000 (2019) 550000 (2018) 678000 550000 560000 616000 859000 931000
2020-07-12 00:00 13.83 406000 931000 (2019) 550000 (2018) 678000 550000 560000 616000 859000 931000
2020-07-11 23:00 13.85 406000 955000 (2019) 571000 (2018) 706000 571000 585000 648000 884000 955000
2020-07-11 22:00 13.89 407000 955000 (2019) 571000 (2018) 706000 571000 585000 648000 884000 955000
2020-07-11 21:00 13.94 408000 955000 (2019) 571000 (2018) 706000 571000 585000 648000 884000 955000
2020-07-11 20:00 13.92 408000 955000 (2019) 571000 (2018) 706000 571000 585000 648000 884000 955000
2020-07-11 19:00 13.82 405000 955000 (2019) 571000 (2018) 706000 571000 585000 648000 884000 955000
2020-07-11 18:00 13.93 408000 955000 (2019) 571000 (2018) 706000 571000 585000 648000 884000 955000
2020-07-11 17:00 14.00 409000 955000 (2019) 571000 (2018) 706000 571000 585000 648000 884000 955000
2020-07-11 16:00 14.11 412000 955000 (2019) 571000 (2018) 706000 571000 585000 648000 884000 955000
2020-07-11 15:00 14.18 413000 955000 (2019) 571000 (2018) 706000 571000 585000 648000 884000 955000
2020-07-11 14:00 14.19 414000 955000 (2019) 571000 (2018) 706000 571000 585000 648000 884000 955000
2020-07-11 13:00 14.29 416000 955000 (2019) 571000 (2018) 706000 571000 585000 648000 884000 955000
2020-07-11 12:00 14.28 416000 955000 (2019) 571000 (2018) 706000 571000 585000 648000 884000 955000
2020-07-11 11:00 14.36 418000 955000 (2019) 571000 (2018) 706000 571000 585000 648000 884000 955000
2020-07-11 10:00 14.34 417000 955000 (2019) 571000 (2018) 706000 571000 585000 648000 884000 955000
2020-07-11 09:00 14.46 420000 955000 (2019) 571000 (2018) 706000 571000 585000 648000 884000 955000
2020-07-11 08:00 14.49 421000 955000 (2019) 571000 (2018) 706000 571000 585000 648000 884000 955000
2020-07-11 07:00 14.57 422000 955000 (2019) 571000 (2018) 706000 571000 585000 648000 884000 955000
2020-07-11 06:00 14.63 424000 955000 (2019) 571000 (2018) 706000 571000 585000 648000 884000 955000
2020-07-11 05:00 14.67 425000 955000 (2019) 571000 (2018) 706000 571000 585000 648000 884000 955000
2020-07-11 04:00 14.73 426000 955000 (2019) 571000 (2018) 706000 571000 585000 648000 884000 955000
2020-07-11 03:00 14.79 427000 955000 (2019) 571000 (2018) 706000 571000 585000 648000 884000 955000
2020-07-11 02:00 14.87 429000 955000 (2019) 571000 (2018) 706000 571000 585000 648000 884000 955000
2020-07-11 01:00 14.93 431000 955000 (2019) 571000 (2018) 706000 571000 585000 648000 884000 955000
2020-07-11 00:00 15.08 434000 955000 (2019) 571000 (2018) 706000 571000 585000 648000 884000 955000
2020-07-10 23:00 15.18 436000 983000 (2019) 588000 (2018) 723000 588000 603000 660000 905000 983000
2020-07-10 22:00 15.29 439000 983000 (2019) 588000 (2018) 723000 588000 603000 660000 905000 983000
2020-07-10 21:00 15.39 441000 983000 (2019) 588000 (2018) 723000 588000 603000 660000 905000 983000
2020-07-10 20:00 15.52 444000 983000 (2019) 588000 (2018) 723000 588000 603000 660000 905000 983000
2020-07-10 19:00 15.71 449000 983000 (2019) 588000 (2018) 723000 588000 603000 660000 905000 983000
2020-07-10 18:00 15.80 451000 983000 (2019) 588000 (2018) 723000 588000 603000 660000 905000 983000
2020-07-10 17:00 15.79 451000 983000 (2019) 588000 (2018) 723000 588000 603000 660000 905000 983000
2020-07-10 16:00 16.04 457000 983000 (2019) 588000 (2018) 723000 588000 603000 660000 905000 983000
2020-07-10 15:00 16.17 460000 983000 (2019) 588000 (2018) 723000 588000 603000 660000 905000 983000
2020-07-10 14:00 16.29 463000 983000 (2019) 588000 (2018) 723000 588000 603000 660000 905000 983000
2020-07-10 13:00 16.34 464000 983000 (2019) 588000 (2018) 723000 588000 603000 660000 905000 983000
2020-07-10 12:00 16.31 463000 983000 (2019) 588000 (2018) 723000 588000 603000 660000 905000 983000
2020-07-10 11:00 16.47 467000 983000 (2019) 588000 (2018) 723000 588000 603000 660000 905000 983000
2020-07-10 10:00 16.55 469000 983000 (2019) 588000 (2018) 723000 588000 603000 660000 905000 983000
2020-07-10 09:00 16.58 470000 983000 (2019) 588000 (2018) 723000 588000 603000 660000 905000 983000
2020-07-10 08:00 16.63 471000 983000 (2019) 588000 (2018) 723000 588000 603000 660000 905000 983000
2020-07-10 07:00 16.65 471000 983000 (2019) 588000 (2018) 723000 588000 603000 660000 905000 983000
2020-07-10 06:00 16.55 469000 983000 (2019) 588000 (2018) 723000 588000 603000 660000 905000 983000
2020-07-10 05:00 16.43 466000 983000 (2019) 588000 (2018) 723000 588000 603000 660000 905000 983000
2020-07-10 04:00 16.72 473000 983000 (2019) 588000 (2018) 723000 588000 603000 660000 905000 983000
2020-07-10 03:00 16.78 474000 983000 (2019) 588000 (2018) 723000 588000 603000 660000 905000 983000
2020-07-10 02:00 16.84 476000 983000 (2019) 588000 (2018) 723000 588000 603000 660000 905000 983000
2020-07-10 01:00 16.91 478000 983000 (2019) 588000 (2018) 723000 588000 603000 660000 905000 983000
2020-07-10 00:00 17.00 480000 983000 (2019) 588000 (2018) 723000 588000 603000 660000 905000 983000
2020-07-09 23:00 17.02 480000 1020000 (2019) 603000 (2018) 735000 603000 617000 659000 930000 1020000
2020-07-09 22:00 16.90 477000 1020000 (2019) 603000 (2018) 735000 603000 617000 659000 930000 1020000
2020-07-09 21:00 17.13 483000 1020000 (2019) 603000 (2018) 735000 603000 617000 659000 930000 1020000
2020-07-09 20:00 17.18 484000 1020000 (2019) 603000 (2018) 735000 603000 617000 659000 930000 1020000
2020-07-09 19:00 17.05 481000 1020000 (2019) 603000 (2018) 735000 603000 617000 659000 930000 1020000
2020-07-09 18:00 17.34 488000 1020000 (2019) 603000 (2018) 735000 603000 617000 659000 930000 1020000
2020-07-09 17:00 17.19 485000 1020000 (2019) 603000 (2018) 735000 603000 617000 659000 930000 1020000
2020-07-09 16:00 17.44 491000 1020000 (2019) 603000 (2018) 735000 603000 617000 659000 930000 1020000
2020-07-09 15:00 17.55 493000 1020000 (2019) 603000 (2018) 735000 603000 617000 659000 930000 1020000
2020-07-09 14:00 17.63 495000 1020000 (2019) 603000 (2018) 735000 603000 617000 659000 930000 1020000
2020-07-09 13:00 17.68 497000 1020000 (2019) 603000 (2018) 735000 603000 617000 659000 930000 1020000
2020-07-09 12:00 17.78 499000 1020000 (2019) 603000 (2018) 735000 603000 617000 659000 930000 1020000
2020-07-09 11:00 17.86 501000 1020000 (2019) 603000 (2018) 735000 603000 617000 659000 930000 1020000
2020-07-09 10:00 17.94 503000 1020000 (2019) 603000 (2018) 735000 603000 617000 659000 930000 1020000
2020-07-09 09:00 18.01 505000 1020000 (2019) 603000 (2018) 735000 603000 617000 659000 930000 1020000
2020-07-09 08:00 18.10 507000 1020000 (2019) 603000 (2018) 735000 603000 617000 659000 930000 1020000
2020-07-09 07:00 18.22 510000 1020000 (2019) 603000 (2018) 735000 603000 617000 659000 930000 1020000
2020-07-09 06:00 18.25 511000 1020000 (2019) 603000 (2018) 735000 603000 617000 659000 930000 1020000
2020-07-09 05:00 18.34 513000 1020000 (2019) 603000 (2018) 735000 603000 617000 659000 930000 1020000
2020-07-09 04:00 18.46 516000 1020000 (2019) 603000 (2018) 735000 603000 617000 659000 930000 1020000
2020-07-09 03:00 18.59 519000 1020000 (2019) 603000 (2018) 735000 603000 617000 659000 930000 1020000
2020-07-09 02:00 18.66 521000 1020000 (2019) 603000 (2018) 735000 603000 617000 659000 930000 1020000
2020-07-09 01:00 18.74 523000 1020000 (2019) 603000 (2018) 735000 603000 617000 659000 930000 1020000
2020-07-09 00:00 18.85 526000 1020000 (2019) 603000 (2018) 735000 603000 617000 659000 930000 1020000
2020-07-08 23:00 18.90 528000 1060000 (2019) 619000 (2018) 738000 619000 619000 637000 959000 1060000
2020-07-08 22:00 18.97 529000 1060000 (2019) 619000 (2018) 738000 619000 619000 637000 959000 1060000
2020-07-08 21:00 19.02 531000 1060000 (2019) 619000 (2018) 738000 619000 619000 637000 959000 1060000
2020-07-08 20:00 19.15 534000 1060000 (2019) 619000 (2018) 738000 619000 619000 637000 959000 1060000
2020-07-08 19:00 19.21 536000 1060000 (2019) 619000 (2018) 738000 619000 619000 637000 959000 1060000
2020-07-08 18:00 19.26 537000 1060000 (2019) 619000 (2018) 738000 619000 619000 637000 959000 1060000
2020-07-08 17:00 19.33 539000 1060000 (2019) 619000 (2018) 738000 619000 619000 637000 959000 1060000
2020-07-08 16:00 19.39 541000 1060000 (2019) 619000 (2018) 738000 619000 619000 637000 959000 1060000
2020-07-08 15:00 19.45 543000 1060000 (2019) 619000 (2018) 738000 619000 619000 637000 959000 1060000
2020-07-08 14:00 19.54 545000 1060000 (2019) 619000 (2018) 738000 619000 619000 637000 959000 1060000
2020-07-08 13:00 19.62 547000 1060000 (2019) 619000 (2018) 738000 619000 619000 637000 959000 1060000
2020-07-08 12:00 19.67 549000 1060000 (2019) 619000 (2018) 738000 619000 619000 637000 959000 1060000
2020-07-08 11:00 19.78 552000 1060000 (2019) 619000 (2018) 738000 619000 619000 637000 959000 1060000
2020-07-08 10:00 19.83 553000 1060000 (2019) 619000 (2018) 738000 619000 619000 637000 959000 1060000
2020-07-08 09:00 19.87 554000 1060000 (2019) 619000 (2018) 738000 619000 619000 637000 959000 1060000
2020-07-08 08:00 19.77 552000 1060000 (2019) 619000 (2018) 738000 619000 619000 637000 959000 1060000
2020-07-08 07:00 19.95 557000 1060000 (2019) 619000 (2018) 738000 619000 619000 637000 959000 1060000
2020-07-08 06:00 20.06 560000 1060000 (2019) 619000 (2018) 738000 619000 619000 637000 959000 1060000
2020-07-08 05:00 20.12 561000 1060000 (2019) 619000 (2018) 738000 619000 619000 637000 959000 1060000
2020-07-08 04:00 20.16 563000 1060000 (2019) 619000 (2018) 738000 619000 619000 637000 959000 1060000
2020-07-08 03:00 20.25 565000 1060000 (2019) 619000 (2018) 738000 619000 619000 637000 959000 1060000
2020-07-08 02:00 20.36 568000 1060000 (2019) 619000 (2018) 738000 619000 619000 637000 959000 1060000
2020-07-08 01:00 20.40 569000 1060000 (2019) 619000 (2018) 738000 619000 619000 637000 959000 1060000
2020-07-08 00:00 20.48 572000 1060000 (2019) 619000 (2018) 738000 619000 619000 637000 959000 1060000
2020-07-07 23:00 20.54 573000 1100000 (2019) 530000 (2016) 724000 530000 555000 632000 983000 1100000
2020-07-07 22:00 20.60 575000 1100000 (2019) 530000 (2016) 724000 530000 555000 632000 983000 1100000
2020-07-07 21:00 20.70 578000 1100000 (2019) 530000 (2016) 724000 530000 555000 632000 983000 1100000
2020-07-07 20:00 20.75 579000 1100000 (2019) 530000 (2016) 724000 530000 555000 632000 983000 1100000
2020-07-07 19:00 20.84 582000 1100000 (2019) 530000 (2016) 724000 530000 555000 632000 983000 1100000
2020-07-07 18:00 20.93 584000 1100000 (2019) 530000 (2016) 724000 530000 555000 632000 983000 1100000
2020-07-07 17:00 20.80 581000 1100000 (2019) 530000 (2016) 724000 530000 555000 632000 983000 1100000
2020-07-07 16:00 21.10 590000 1100000 (2019) 530000 (2016) 724000 530000 555000 632000 983000 1100000
2020-07-07 15:00 21.21 593000 1100000 (2019) 530000 (2016) 724000 530000 555000 632000 983000 1100000
2020-07-07 14:00 21.28 595000 1100000 (2019) 530000 (2016) 724000 530000 555000 632000 983000 1100000
2020-07-07 13:00 21.24 594000 1100000 (2019) 530000 (2016) 724000 530000 555000 632000 983000 1100000
2020-07-07 12:00 21.42 600000 1100000 (2019) 530000 (2016) 724000 530000 555000 632000 983000 1100000
2020-07-07 11:00 21.51 603000 1100000 (2019) 530000 (2016) 724000 530000 555000 632000 983000 1100000
2020-07-07 10:00 21.62 606000 1100000 (2019) 530000 (2016) 724000 530000 555000 632000 983000 1100000
2020-07-07 09:00 21.67 608000 1100000 (2019) 530000 (2016) 724000 530000 555000 632000 983000 1100000
2020-07-07 08:00 21.74 610000 1100000 (2019) 530000 (2016) 724000 530000 555000 632000 983000 1100000
2020-07-07 07:00 21.84 613000 1100000 (2019) 530000 (2016) 724000 530000 555000 632000 983000 1100000
2020-07-07 06:00 21.89 615000 1100000 (2019) 530000 (2016) 724000 530000 555000 632000 983000 1100000
2020-07-07 05:00 21.98 618000 1100000 (2019) 530000 (2016) 724000 530000 555000 632000 983000 1100000
2020-07-07 04:00 22.03 619000 1100000 (2019) 530000 (2016) 724000 530000 555000 632000 983000 1100000
2020-07-07 03:00 22.08 621000 1100000 (2019) 530000 (2016) 724000 530000 555000 632000 983000 1100000
2020-07-07 02:00 22.17 624000 1100000 (2019) 530000 (2016) 724000 530000 555000 632000 983000 1100000
2020-07-07 01:00 22.21 625000 1100000 (2019) 530000 (2016) 724000 530000 555000 632000 983000 1100000
2020-07-07 00:00 22.28 627000 1100000 (2019) 530000 (2016) 724000 530000 555000 632000 983000 1100000
2020-07-06 23:00 22.34 629000 1140000 (2019) 469000 (2016) 716000 469000 502000 627000 1020000 1140000
2020-07-06 22:00 22.42 632000 1140000 (2019) 469000 (2016) 716000 469000 502000 627000 1020000 1140000
2020-07-06 21:00 22.48 634000 1140000 (2019) 469000 (2016) 716000 469000 502000 627000 1020000 1140000
2020-07-06 20:00 22.57 637000 1140000 (2019) 469000 (2016) 716000 469000 502000 627000 1020000 1140000
2020-07-06 19:00 22.62 638000 1140000 (2019) 469000 (2016) 716000 469000 502000 627000 1020000 1140000
2020-07-06 18:00 22.68 640000 1140000 (2019) 469000 (2016) 716000 469000 502000 627000 1020000 1140000
2020-07-06 17:00 22.80 644000 1140000 (2019) 469000 (2016) 716000 469000 502000 627000 1020000 1140000
2020-07-06 16:00 22.83 645000 1140000 (2019) 469000 (2016) 716000 469000 502000 627000 1020000 1140000
2020-07-06 15:00 22.88 647000 1140000 (2019) 469000 (2016) 716000 469000 502000 627000 1020000 1140000
2020-07-06 14:00 22.94 649000 1140000 (2019) 469000 (2016) 716000 469000 502000 627000 1020000 1140000
2020-07-06 13:00 23.00 651000 1140000 (2019) 469000 (2016) 716000 469000 502000 627000 1020000 1140000
2020-07-06 12:00 23.06 653000 1140000 (2019) 469000 (2016) 716000 469000 502000 627000 1020000 1140000
2020-07-06 11:00 23.11 654000 1140000 (2019) 469000 (2016) 716000 469000 502000 627000 1020000 1140000
2020-07-06 10:00 23.19 657000 1140000 (2019) 469000 (2016) 716000 469000 502000 627000 1020000 1140000
2020-07-06 09:00 23.21 658000 1140000 (2019) 469000 (2016) 716000 469000 502000 627000 1020000 1140000
2020-07-06 08:00 23.29 660000 1140000 (2019) 469000 (2016) 716000 469000 502000 627000 1020000 1140000
2020-07-06 07:00 23.34 662000 1140000 (2019) 469000 (2016) 716000 469000 502000 627000 1020000 1140000
2020-07-06 06:00 23.40 664000 1140000 (2019) 469000 (2016) 716000 469000 502000 627000 1020000 1140000
2020-07-06 05:00 23.40 664000 1140000 (2019) 469000 (2016) 716000 469000 502000 627000 1020000 1140000
2020-07-06 04:00 23.48 667000 1140000 (2019) 469000 (2016) 716000 469000 502000 627000 1020000 1140000
2020-07-06 03:00 23.54 669000 1140000 (2019) 469000 (2016) 716000 469000 502000 627000 1020000 1140000
2020-07-06 02:00 23.56 669000 1140000 (2019) 469000 (2016) 716000 469000 502000 627000 1020000 1140000
2020-07-06 01:00 23.62 671000 1140000 (2019) 469000 (2016) 716000 469000 502000 627000 1020000 1140000
2020-07-06 00:00 23.65 672000 1140000 (2019) 469000 (2016) 716000 469000 502000 627000 1020000 1140000

A total of 188 rows are displayed for years 2016 through 2019.